Time;durP1;ratioP1;P1;durP2;ratioP2;P2;SDS_P1;SDS_P2;PMS_P1;PMS_P2;Temp;Humidity;BMP_temperature;BMP_pressure;BME280_temperature;BME280_humidity;BME280_pressure;Samples;Min_cycle;Max_cycle;Signal;HPM_P1;HPM_P2
2021/12/02 00:02:07;;;;;;;;;6.00;6.00;;;;;7.32;82.67;98139.19;6317670;20;2748210;-49
2021/12/02 00:04:40;;;;;;;;;5.00;3.00;;;;;7.44;82.36;98137.41;6287068;20;2753366;-46
2021/12/02 00:07:08;;;;;;;;;6.00;6.00;;;;;7.30;82.75;98130.44;6285624;20;2747124;-46
2021/12/02 00:09:38;;;;;;;;;4.00;4.00;;;;;7.49;81.69;98135.25;6283008;20;2741248;-48
2021/12/02 00:12:08;;;;;;;;;3.00;3.00;;;;;7.45;82.10;98139.09;6285207;20;2753419;-48
2021/12/02 00:14:42;;;;;;;;;4.00;4.00;;;;;7.38;81.98;98149.41;6287498;20;2750286;-49
2021/12/02 00:17:19;;;;;;;;;3.75;3.00;;;;;7.31;81.96;98148.13;6302969;20;1806628;-50
2021/12/02 00:23:04;;;;;;;;;7.00;2.50;;;;;7.56;80.43;98141.84;6285791;20;2742013;-48
2021/12/02 00:25:32;;;;;;;;;4.00;4.00;;;;;7.51;81.15;98154.69;6314699;20;2757285;-46
2021/12/02 00:28:02;;;;;;;;;3.00;3.00;;;;;7.41;81.19;98151.00;6298040;20;1818117;-46
2021/12/02 00:30:30;;;;;;;;;4.00;4.00;;;;;7.53;80.58;98147.44;6312087;20;2752338;-45
2021/12/02 00:33:00;;;;;;;;;3.50;3.00;;;;;7.45;81.06;98145.31;6284519;20;2748378;-48
2021/12/02 00:35:28;;;;;;;;;4.00;4.00;;;;;7.46;80.99;98138.16;6282837;20;2754474;-45
2021/12/02 00:37:57;;;;;;;;;4.00;4.00;;;;;7.36;81.38;98140.63;6282203;20;2751341;-48
2021/12/02 00:40:25;;;;;;;;;3.75;2.75;;;;;7.74;81.93;98144.09;6302312;20;1802830;-45
2021/12/02 00:42:54;;;;;;;;;4.00;4.00;;;;;7.67;80.79;98135.72;6333512;20;1813906;-45
2021/12/02 00:45:22;;;;;;;;;4.00;4.00;;;;;7.50;80.88;98144.97;6313935;20;2751343;-46
2021/12/02 00:47:51;;;;;;;;;4.00;4.00;;;;;7.54;80.67;98145.59;6282480;20;2737830;-45
2021/12/02 00:50:19;;;;;;;;;4.00;4.00;;;;;7.54;80.48;98148.28;6314692;20;2746505;-44
2021/12/02 00:52:51;;;;;;;;;9.00;7.50;;;;;7.58;81.67;98145.28;6283702;20;2739865;-47
2021/12/02 00:55:21;;;;;;;;;6.50;6.00;;;;;7.54;80.21;98146.44;6285219;20;2748198;-45
2021/12/02 00:57:50;;;;;;;;;7.75;5.50;;;;;7.41;80.87;98141.16;6297924;20;1814933;-46
2021/12/02 01:00:17;;;;;;;;;7.00;6.00;;;;;7.40;81.00;98126.13;6316790;20;2745075;-45
2021/12/02 01:02:46;;;;;;;;;6.50;4.00;;;;;7.40;81.04;98126.13;6283423;20;2745236;-47
2021/12/02 01:05:14;;;;;;;;;4.00;4.00;;;;;7.40;81.31;98117.25;6283723;20;2748167;-45
2021/12/02 01:07:43;;;;;;;;;7.00;7.00;;;;;7.30;81.29;98118.91;6280655;20;2735968;-46
2021/12/02 01:10:12;;;;;;;;;7.75;6.25;;;;;7.20;81.86;98119.56;6330496;20;1806592;-44
2021/12/02 01:12:39;;;;;;;;;6.00;6.00;;;;;7.14;82.28;98125.34;6317865;20;2748180;-45
2021/12/02 01:15:09;;;;;;;;;7.00;7.00;;;;;7.19;82.49;98127.69;6332479;20;1816407;-45
2021/12/02 01:17:38;;;;;;;;;7.00;7.00;;;;;7.02;82.95;98126.22;6315152;20;2746264;-45
2021/12/02 01:20:08;;;;;;;;;6.00;6.00;;;;;6.95;83.80;98124.97;6282282;20;2751348;-45
2021/12/02 01:22:39;;;;;;;;;7.00;5.00;;;;;6.89;84.02;98125.41;6287188;20;2731608;-46
2021/12/02 01:25:08;;;;;;;;;7.00;7.00;;;;;6.95;83.99;98124.97;6308899;20;2748236;-46
2021/12/02 01:27:39;;;;;;;;;2.50;2.50;;;;;6.81;84.63;98125.94;6298779;20;1809713;-45
2021/12/02 01:30:08;;;;;;;;;8.00;7.00;;;;;6.82;84.47;98120.53;6312620;20;2733612;-44
2021/12/02 01:32:40;;;;;;;;;11.00;7.00;;;;;6.77;85.09;98112.00;6314853;20;2757613;-47
2021/12/02 01:35:09;;;;;;;;;8.20;8.00;;;;;6.87;84.54;98122.84;6307197;20;2748621;-44
2021/12/02 01:37:40;;;;;;;;;9.20;6.80;;;;;7.00;84.90;98112.13;6338297;20;2737741;-45
2021/12/02 01:40:09;;;;;;;;;8.50;7.00;;;;;6.86;85.27;98109.63;6312337;20;2743983;-47
2021/12/02 01:42:41;;;;;;;;;7.00;6.00;;;;;6.79;85.20;98098.53;6284621;20;2744052;-45
2021/12/02 01:45:16;;;;;;;;;8.80;7.00;;;;;6.98;85.29;98104.25;6305588;20;2747191;-47
2021/12/02 01:47:51;;;;;;;;;14.00;10.71;;;;;6.97;86.67;98112.38;6353378;20;1804489;-46
2021/12/02 01:50:24;;;;;;;;;7.00;7.00;;;;;6.73;86.17;98099.81;6314612;20;2746123;-45
2021/12/02 01:53:00;;;;;;;;;9.40;8.00;;;;;6.90;85.79;98100.41;6305701;20;2743013;-45
2021/12/02 01:55:29;;;;;;;;;8.00;6.00;;;;;7.01;85.33;98092.50;6312008;20;2744020;-45
2021/12/02 01:58:04;;;;;;;;;8.00;7.00;;;;;6.73;86.15;98089.16;6282297;20;2738882;-46
2021/12/02 02:00:43;;;;;;;;;9.00;6.00;;;;;6.74;85.65;98096.22;6284271;20;2750285;-45
2021/12/02 02:03:15;;;;;;;;;8.00;8.00;;;;;6.88;86.17;98095.22;6284849;20;2736717;-45
2021/12/02 02:05:43;;;;;;;;;9.00;5.00;;;;;6.89;85.52;98088.06;6313011;20;2742054;-45
2021/12/02 02:08:22;;;;;;;;;6.00;6.00;;;;;6.79;85.90;98088.75;6283391;20;2727454;-44
2021/12/02 02:10:50;;;;;;;;;6.00;6.00;;;;;6.76;85.61;98083.59;6312817;20;2736851;-44
2021/12/02 02:13:20;;;;;;;;;9.00;7.00;;;;;6.85;86.04;98089.25;6315365;20;2742946;-44
2021/12/02 02:15:52;;;;;;;;;13.00;6.50;;;;;6.73;86.21;98090.97;6312086;20;2766918;-44
2021/12/02 02:18:21;;;;;;;;;8.50;4.00;;;;;6.74;86.99;98087.34;6296570;20;1818101;-45
2021/12/02 02:21:05;;;;;;;;;12.00;6.00;;;;;6.78;86.97;98081.69;6309852;20;2769103;-47
2021/12/02 02:23:41;;;;;;;;;8.00;7.00;;;;;6.70;86.68;98085.88;6278955;20;2748210;-44
2021/12/02 02:26:09;;;;;;;;;9.50;6.00;;;;;6.66;86.83;98082.56;6283582;20;2758587;-45
2021/12/02 02:28:40;;;;;;;;;6.57;3.71;;;;;6.73;86.87;98081.16;6323918;20;1812934;-44
2021/12/02 02:31:08;;;;;;;;;6.00;6.00;;;;;6.72;86.79;98082.13;6318426;20;2742173;-45
2021/12/02 02:33:37;;;;;;;;;8.00;8.00;;;;;6.67;86.97;98084.28;6321024;20;2748467;-46
2021/12/02 02:36:09;;;;;;;;;8.00;8.00;;;;;6.66;87.66;98084.38;6287193;20;2743076;-45
2021/12/02 02:38:37;;;;;;;;;7.00;7.00;;;;;6.62;87.43;98083.75;6286767;20;2748310;-46
2021/12/02 02:41:07;;;;;;;;;7.50;7.50;;;;;6.63;87.30;98087.25;6285241;20;2755492;-47
2021/12/02 02:43:36;;;;;;;;;7.00;7.00;;;;;6.77;86.79;98088.00;6306566;20;1809727;-44
2021/12/02 02:46:04;;;;;;;;;6.00;6.00;;;;;6.67;87.01;98084.28;6318526;20;2745144;-45
2021/12/02 02:48:35;;;;;;;;;6.17;6.00;;;;;6.69;87.36;98078.81;6326565;20;1808659;-46
2021/12/02 02:51:03;;;;;;;;;7.00;7.00;;;;;6.73;87.11;98089.16;6305364;20;1814998;-43
2021/12/02 02:53:31;;;;;;;;;8.50;6.50;;;;;6.69;87.55;98087.69;6317840;20;2742016;-44
2021/12/02 02:56:05;;;;;;;;;9.00;9.00;;;;;6.76;87.04;98091.59;6285201;20;2737764;-45
2021/12/02 03:01:22;;;;;;;;;12.00;7.50;;;;;6.79;87.61;98095.88;6281064;20;2769061;-44
2021/12/02 03:09:21;;;;;;;;;8.50;8.50;;;;;6.66;87.86;98101.25;6317409;20;2741917;-44
2021/12/02 03:11:52;;;;;;;;;7.00;7.00;;;;;6.42;88.66;98095.81;6286494;20;2747141;-46
2021/12/02 03:14:36;;;;;;;;;9.00;8.00;;;;;6.36;89.32;98096.25;6314532;20;2748198;-46
2021/12/02 03:17:04;;;;;;;;;6.50;6.50;;;;;6.39;88.81;98096.03;6289915;20;2736722;-46
2021/12/02 03:19:32;;;;;;;;;10.00;10.00;;;;;6.52;89.01;98091.53;6282453;20;2784662;-44
2021/12/02 03:22:00;;;;;;;;;10.00;7.50;;;;;6.37;89.25;98093.50;6289079;20;2763900;-45
2021/12/02 03:24:27;;;;;;;;;7.50;7.50;;;;;6.31;89.10;98099.22;6283556;20;2744069;-46
2021/12/02 03:26:55;;;;;;;;;11.50;8.00;;;;;6.36;89.74;98101.56;6286618;20;2763908;-46
2021/12/02 03:29:23;;;;;;;;;7.50;7.50;;;;;6.25;89.63;98097.00;6285355;20;2746092;-44
2021/12/02 03:31:51;;;;;;;;;8.00;7.00;;;;;6.26;90.38;98098.69;6285329;20;2754664;-46
2021/12/02 03:34:20;;;;;;;;;8.00;7.50;;;;;6.35;89.31;98108.72;6285251;20;2746192;-45
2021/12/02 03:36:48;;;;;;;;;3.75;2.50;;;;;6.33;89.71;98107.97;6303179;20;1820612;-48
2021/12/02 03:39:16;;;;;;;;;8.50;8.00;;;;;6.14;90.22;98104.91;6313775;20;2747384;-44
2021/12/02 03:41:45;;;;;;;;;9.00;8.50;;;;;6.07;90.34;98111.59;6284480;20;2739862;-44
2021/12/02 03:44:13;;;;;;;;;8.50;8.00;;;;;6.15;90.51;98109.25;6286916;20;2739834;-45
2021/12/02 03:46:41;;;;;;;;;7.00;7.00;;;;;6.24;90.22;98103.31;6285334;20;2737767;-44
2021/12/02 03:49:10;;;;;;;;;9.00;9.00;;;;;6.16;90.78;98105.63;6314661;20;2762885;-47
2021/12/02 03:51:38;;;;;;;;;9.50;9.50;;;;;6.16;91.12;98100.28;6286403;20;2758618;-44
2021/12/02 03:54:05;;;;;;;;;9.00;9.00;;;;;6.09;91.33;98104.34;6284719;20;2736760;-46
2021/12/02 03:56:35;;;;;;;;;12.00;7.80;;;;;6.20;90.95;98103.59;6341133;20;2758654;-44
2021/12/02 03:59:04;;;;;;;;;9.00;8.00;;;;;6.18;90.92;98109.03;6316438;20;2727361;-45
2021/12/02 04:01:32;;;;;;;;;10.00;8.00;;;;;6.12;91.05;98106.81;6318907;20;2756491;-46
2021/12/02 04:04:00;;;;;;;;;9.00;8.00;;;;;6.20;91.06;98107.13;6281507;20;2751365;-45
2021/12/02 04:06:28;;;;;;;;;11.00;9.00;;;;;6.02;91.13;98105.72;6283321;20;2769043;-45
2021/12/02 04:09:02;;;;;;;;;10.00;8.00;;;;;6.07;91.50;98107.09;6286722;20;2761753;-44
2021/12/02 04:11:37;;;;;;;;;10.00;7.00;;;;;6.05;91.41;98108.19;6283079;20;2763937;-45
2021/12/02 04:14:26;;;;;;;;;13.67;10.67;;;;;5.97;92.01;98105.19;6283450;20;2789877;-45
2021/12/02 04:17:05;;;;;;;;;9.71;8.43;;;;;6.27;90.80;98111.06;6357018;20;1804482;-46
2021/12/02 04:19:32;;;;;;;;;13.00;13.00;;;;;5.94;91.77;98107.09;6314232;20;2789921;-44
2021/12/02 04:22:05;;;;;;;;;9.14;9.00;;;;;6.05;91.62;98097.50;6325142;20;1803923;-44
2021/12/02 04:24:33;;;;;;;;;12.00;11.00;;;;;6.01;92.15;98109.34;6313206;20;2791905;-46
2021/12/02 04:27:01;;;;;;;;;9.00;8.00;;;;;6.00;92.17;98112.97;6286757;20;2743058;-45
2021/12/02 04:29:30;;;;;;;;;11.00;10.00;;;;;6.08;91.74;98115.94;6280456;20;2761996;-45
2021/12/02 04:32:00;;;;;;;;;10.20;9.00;;;;;6.08;91.97;98102.63;6310447;20;2754525;-44
2021/12/02 04:34:28;;;;;;;;;13.00;11.00;;;;;6.03;91.51;98104.75;6313422;20;2788191;-46
2021/12/02 04:36:55;;;;;;;;;12.00;9.00;;;;;5.94;92.37;98096.44;6283601;20;2764901;-46
2021/12/02 04:39:23;;;;;;;;;12.50;9.00;;;;;5.96;92.16;98083.03;6281955;20;2776281;-45
2021/12/02 04:41:51;;;;;;;;;13.00;12.00;;;;;6.10;92.15;98103.38;6287192;20;2787826;-45
2021/12/02 04:44:19;;;;;;;;;11.00;10.00;;;;;5.99;92.06;98105.94;6283230;20;2773287;-44
2021/12/02 04:46:49;;;;;;;;;12.00;10.00;;;;;6.05;92.15;98118.84;6283512;20;2796277;-45
2021/12/02 04:49:17;;;;;;;;;12.50;11.50;;;;;6.26;92.89;98120.00;6282112;20;2785695;-44
2021/12/02 04:51:45;;;;;;;;;10.00;10.00;;;;;6.15;91.66;98115.44;6280313;20;2770062;-45
2021/12/02 04:54:15;;;;;;;;;14.40;8.40;;;;;6.19;91.68;98113.44;6305477;20;2763945;-45
2021/12/02 04:56:43;;;;;;;;;10.00;10.00;;;;;6.27;90.92;98112.91;6280721;20;2787832;-45
2021/12/02 04:59:14;;;;;;;;;14.43;9.86;;;;;6.12;91.75;98117.47;6323331;20;1804465;-45
2021/12/02 05:01:43;;;;;;;;;14.67;10.00;;;;;6.18;91.97;98122.34;6313521;20;2792076;-44
2021/12/02 05:04:11;;;;;;;;;12.50;12.00;;;;;6.13;91.30;98125.38;6318607;20;2784777;-45
2021/12/02 05:06:39;;;;;;;;;9.00;9.00;;;;;6.15;91.82;98119.91;6283173;20;2766953;-46
2021/12/02 05:09:06;;;;;;;;;14.50;10.00;;;;;6.25;91.31;98114.81;6285821;20;2777395;-49
2021/12/02 05:11:37;;;;;;;;;12.67;12.67;;;;;5.97;92.58;98115.84;6281707;20;3543992;-44
2021/12/02 05:14:08;;;;;;;;;17.00;13.00;;;;;5.98;92.24;98106.88;6280816;20;3546204;-44
2021/12/02 05:16:38;;;;;;;;;16.00;15.00;;;;;6.06;92.04;98110.75;6314406;20;2821124;-46
2021/12/02 05:19:09;;;;;;;;;11.40;11.40;;;;;6.03;92.86;98115.41;6304303;20;2803532;-46
2021/12/02 05:21:39;;;;;;;;;12.00;11.00;;;;;6.04;92.23;98120.66;6307195;20;2784638;-46
2021/12/02 05:24:06;;;;;;;;;13.50;11.00;;;;;5.99;92.61;98103.28;6282898;20;2786752;-45
2021/12/02 05:26:35;;;;;;;;;13.00;12.33;;;;;6.01;92.03;98091.56;6283193;20;2794508;-46
2021/12/02 05:29:04;;;;;;;;;13.67;12.33;;;;;6.01;92.37;98082.72;6311169;20;2794345;-46
2021/12/02 05:31:33;;;;;;;;;18.00;18.00;;;;;6.05;92.28;98084.19;6312869;20;3565873;-46
2021/12/02 05:34:02;;;;;;;;;13.67;11.33;;;;;6.00;92.69;98083.66;6281310;20;2792145;-44
2021/12/02 05:36:31;;;;;;;;;18.67;18.00;;;;;5.96;92.58;98092.84;6312904;20;3544122;-47
2021/12/02 05:38:59;;;;;;;;;13.50;13.50;;;;;6.03;92.57;98099.44;6314188;20;2805504;-45
2021/12/02 05:41:29;;;;;;;;;14.60;12.00;;;;;5.90;92.80;98099.41;6303179;20;2797156;-45
2021/12/02 05:43:57;;;;;;;;;17.00;17.00;;;;;5.81;93.58;98095.53;6283126;20;2814879;-45
2021/12/02 05:46:26;;;;;;;;;17.00;14.67;;;;;5.98;94.92;98097.09;6281037;20;3555414;-46
2021/12/02 05:48:55;;;;;;;;;11.67;11.67;;;;;5.76;94.15;98092.31;6276255;20;2791999;-44
2021/12/02 05:51:23;;;;;;;;;22.50;18.00;;;;;5.68;94.18;98098.16;6310100;20;2498226;-44
2021/12/02 05:53:50;;;;;;;;;10.50;10.00;;;;;5.90;94.18;98099.41;6281408;20;2757530;-44
2021/12/02 05:56:19;;;;;;;;;17.33;17.00;;;;;5.89;93.50;98103.84;6281647;20;3550314;-46
2021/12/02 05:58:48;;;;;;;;;19.33;17.00;;;;;5.72;94.45;98104.16;6279484;20;3553403;-45
2021/12/02 06:01:16;;;;;;;;;16.50;13.00;;;;;5.68;94.39;98111.47;6311147;20;2801618;-44
2021/12/02 06:03:44;;;;;;;;;15.00;15.00;;;;;5.67;95.03;98116.94;6285248;20;2815975;-45
2021/12/02 06:06:15;;;;;;;;;22.67;16.00;;;;;5.72;94.42;98106.81;6287014;20;3566916;-46
2021/12/02 06:08:43;;;;;;;;;14.67;14.00;;;;;5.71;95.04;98105.09;6316397;20;3538838;-46
2021/12/02 06:11:11;;;;;;;;;18.50;17.00;;;;;5.73;95.04;98103.19;6317588;20;2824589;-45
2021/12/02 06:13:40;;;;;;;;;14.00;12.00;;;;;5.85;94.42;98118.34;6283612;20;2793118;-45
2021/12/02 06:16:09;;;;;;;;;17.00;14.67;;;;;5.75;95.57;98114.59;6284631;20;3550284;-45
2021/12/02 06:18:38;;;;;;;;;14.67;12.33;;;;;5.77;95.73;98112.69;6315623;20;3526334;-44
2021/12/02 06:21:07;;;;;;;;;19.00;17.00;;;;;5.71;96.32;98113.09;6284253;20;3550208;-44
2021/12/02 06:23:36;;;;;;;;;19.00;17.00;;;;;5.72;96.53;98109.47;6285437;20;2816918;-45
2021/12/02 06:26:03;;;;;;;;;20.00;20.00;;;;;5.88;96.37;98120.81;6286000;20;2827324;-46
2021/12/02 06:28:31;;;;;;;;;17.50;15.50;;;;;5.81;95.93;98122.16;6285777;20;2823163;-45
2021/12/02 06:31:06;;;;;;;;;16.33;13.67;;;;;5.77;96.42;98127.81;6279449;20;3544001;-45
2021/12/02 06:33:35;;;;;;;;;16.00;13.00;;;;;5.75;96.49;98133.25;6315662;20;3530431;-44
2021/12/02 06:36:03;;;;;;;;;16.00;15.00;;;;;5.91;96.16;98128.59;6317185;20;2812781;-45
2021/12/02 06:38:35;;;;;;;;;17.67;15.33;;;;;5.79;97.10;98112.56;6284549;20;3551279;-46
2021/12/02 06:41:02;;;;;;;;;15.00;13.50;;;;;5.73;96.72;98113.84;6318774;20;2814886;-44
2021/12/02 06:43:31;;;;;;;;;17.33;16.00;;;;;5.94;96.44;98115.09;6285077;20;3546256;-45
2021/12/02 06:46:00;;;;;;;;;16.00;13.00;;;;;5.82;96.88;98112.34;6314219;20;3553485;-47
2021/12/02 06:48:28;;;;;;;;;14.33;13.67;;;;;5.84;97.25;98110.44;6311473;20;3534655;-47
2021/12/02 06:50:58;;;;;;;;;16.80;12.80;;;;;5.88;97.40;98096.84;6338755;20;2798283;-44
2021/12/02 06:53:26;;;;;;;;;14.00;12.00;;;;;5.96;97.36;98096.34;6282108;20;2798180;-46
2021/12/02 06:55:55;;;;;;;;;19.33;15.33;;;;;6.09;96.89;98093.69;6285372;20;3552356;-46
2021/12/02 06:58:23;;;;;;;;;13.67;13.00;;;;;5.98;97.53;98099.75;6312741;20;2788858;-45
2021/12/02 07:00:52;;;;;;;;;14.00;12.67;;;;;6.01;97.35;98106.69;6314465;20;2799338;-45
2021/12/02 07:03:22;;;;;;;;;18.67;12.50;;;;;6.01;97.34;98112.88;6339268;20;2810785;-48
2021/12/02 07:05:52;;;;;;;;;14.00;12.33;;;;;6.08;97.63;98116.84;6314265;20;2794191;-45
2021/12/02 07:08:21;;;;;;;;;12.50;12.50;;;;;6.13;97.18;98111.16;6313139;20;2805627;-47
2021/12/02 07:10:50;;;;;;;;;12.00;12.00;;;;;6.18;96.85;98109.03;6285738;20;3521116;-48
2021/12/02 07:13:19;;;;;;;;;13.67;12.33;;;;;6.18;97.24;98114.38;6313066;20;2800372;-46
2021/12/02 07:15:53;;;;;;;;;16.67;11.33;;;;;6.26;97.17;98117.34;6311551;20;3531565;-49
2021/12/02 07:18:25;;;;;;;;;11.60;11.20;;;;;6.30;96.56;98124.19;6339315;20;2789924;-47
2021/12/02 07:20:54;;;;;;;;;13.00;10.67;;;;;6.36;96.76;98120.25;6284800;20;2791998;-45
2021/12/02 07:23:24;;;;;;;;;14.00;12.00;;;;;6.27;97.20;98128.88;6341939;20;2795050;-45
2021/12/02 07:25:53;;;;;;;;;44.67;35.00;;;;;6.57;96.11;98128.53;6280829;20;2872234;-44
2021/12/02 07:28:21;;;;;;;;;14.50;12.50;;;;;6.65;95.09;98131.53;6318260;20;2791999;-44
2021/12/02 07:30:56;;;;;;;;;64.33;48.33;;;;;6.38;96.63;98129.00;6278639;20;3626368;-46
2021/12/02 07:33:29;;;;;;;;;58.00;49.67;;;;;6.53;96.50;98129.72;6313434;20;2860800;-46
2021/12/02 07:35:58;;;;;;;;;30.50;29.00;;;;;6.70;95.72;98136.53;6314616;20;2853437;-45
2021/12/02 07:38:25;;;;;;;;;13.00;12.00;;;;;6.81;95.35;98142.81;6284166;20;2787824;-46
2021/12/02 07:40:54;;;;;;;;;15.33;12.00;;;;;6.88;95.51;98145.91;6283703;20;2793033;-44
2021/12/02 07:43:24;;;;;;;;;15.00;13.00;;;;;6.79;95.75;98138.53;6311435;20;3533559;-45
2021/12/02 07:45:57;;;;;;;;;15.80;13.40;;;;;6.63;96.65;98143.25;6336620;20;2815910;-45
2021/12/02 07:48:26;;;;;;;;;14.00;13.00;;;;;6.80;95.92;98141.13;6282713;20;2790925;-46
2021/12/02 07:51:11;;;;;;;;;12.50;12.00;;;;;6.69;97.35;98135.69;6285714;20;2786732;-47
2021/12/02 07:53:43;;;;;;;;;15.67;13.00;;;;;6.64;97.27;98137.84;6281937;20;2795162;-48
2021/12/02 07:56:17;;;;;;;;;12.20;10.40;;;;;6.77;97.65;98140.50;6339992;20;2784700;-47
2021/12/02 07:58:49;;;;;;;;;18.33;13.67;;;;;6.85;97.81;98139.94;6280956;20;3526264;-47
2021/12/02 08:01:18;;;;;;;;;25.00;18.00;;;;;6.77;98.76;98130.66;6316352;20;2824222;-48
2021/12/02 08:03:47;;;;;;;;;11.50;11.00;;;;;6.82;98.80;98127.69;6283306;20;2787733;-46
2021/12/02 08:06:16;;;;;;;;;14.00;12.00;;;;;6.86;98.48;98141.63;6284045;20;2787804;-47
2021/12/02 08:08:47;;;;;;;;;14.00;10.00;;;;;6.87;100.00;98138.00;6310859;20;2798179;-48
2021/12/02 08:11:14;;;;;;;;;14.00;12.00;;;;;6.78;100.00;98145.69;6284319;20;2793994;-44
2021/12/02 08:13:43;;;;;;;;;9.00;9.00;;;;;6.86;100.00;98146.97;6279975;20;2761788;-46
2021/12/02 08:16:13;;;;;;;;;12.40;11.80;;;;;6.94;100.00;98153.47;6307062;20;2792317;-47
2021/12/02 08:18:42;;;;;;;;;17.20;12.00;;;;;6.96;100.00;98148.88;6302667;20;2800248;-46
2021/12/02 08:21:10;;;;;;;;;14.00;11.00;;;;;6.87;100.00;98151.34;6282841;20;2789996;-44
2021/12/02 08:23:38;;;;;;;;;13.00;10.00;;;;;6.96;100.00;98148.88;6282595;20;2796224;-44
2021/12/02 08:26:06;;;;;;;;;10.00;10.00;;;;;6.95;100.00;98151.63;6281354;20;2798299;-48
2021/12/02 08:28:34;;;;;;;;;13.00;10.00;;;;;6.95;100.00;98155.19;6281063;20;2778545;-43
2021/12/02 08:31:04;;;;;;;;;13.60;10.20;;;;;7.09;100.00;98159.53;6307177;20;2781528;-45
2021/12/02 08:33:32;;;;;;;;;11.00;11.00;;;;;7.03;100.00;98159.97;6281048;20;2794029;-45
2021/12/02 08:35:59;;;;;;;;;14.00;14.00;;;;;7.05;100.00;98160.69;6281088;20;2796131;-44
2021/12/02 08:38:31;;;;;;;;;18.00;14.20;;;;;6.98;100.00;98162.97;6304614;20;2800385;-45
2021/12/02 08:41:00;;;;;;;;;11.00;11.00;;;;;6.94;100.00;98172.13;6286448;20;2796090;-47
2021/12/02 08:43:30;;;;;;;;;14.40;13.00;;;;;6.96;100.00;98164.88;6308000;20;2792035;-46
2021/12/02 08:45:59;;;;;;;;;18.00;14.00;;;;;7.02;100.00;98174.25;6283395;20;3546288;-45
2021/12/02 08:48:28;;;;;;;;;13.60;12.20;;;;;7.20;100.00;98177.44;6188421;20;3524432;-45
2021/12/02 08:50:57;;;;;;;;;13.67;13.67;;;;;7.03;100.00;98176.84;6307633;20;3541938;-46
2021/12/02 08:53:24;;;;;;;;;15.00;13.50;;;;;7.00;100.00;98177.06;6316775;20;2789863;-44
2021/12/02 08:55:53;;;;;;;;;18.67;15.00;;;;;7.13;100.00;98178.81;6283972;20;3541986;-45
2021/12/02 08:58:21;;;;;;;;;19.00;13.00;;;;;7.19;100.00;98181.94;6315273;20;2822359;-47
2021/12/02 09:00:51;;;;;;;;;21.67;17.33;;;;;7.25;100.00;98176.13;6281607;20;3559621;-44
2021/12/02 09:03:20;;;;;;;;;24.50;20.50;;;;;7.15;100.00;98191.09;6312546;20;2833728;-45
2021/12/02 09:05:50;;;;;;;;;40.67;34.67;;;;;7.11;100.00;98186.09;6281422;20;3606522;-45
2021/12/02 09:08:23;;;;;;;;;50.33;36.67;;;;;7.20;100.00;98177.44;6311038;20;3636809;-46
2021/12/02 09:10:54;;;;;;;;;43.33;37.67;;;;;7.25;100.00;98176.13;6313385;20;2865926;-45
2021/12/02 09:13:23;;;;;;;;;38.33;31.67;;;;;7.23;100.00;98177.22;6315239;20;3613785;-44
2021/12/02 09:15:53;;;;;;;;;53.33;42.33;;;;;7.11;100.00;98176.28;6281113;20;3595169;-45
2021/12/02 09:18:23;;;;;;;;;29.00;28.00;;;;;7.31;100.00;98173.97;6313777;20;2851524;-46
2021/12/02 09:20:53;;;;;;;;;33.33;28.33;;;;;7.09;100.00;98164.88;6314486;20;3591980;-44
2021/12/02 09:23:21;;;;;;;;;25.00;25.00;;;;;7.12;100.00;98153.13;6282271;20;2850290;-45
2021/12/02 09:25:50;;;;;;;;;24.00;22.50;;;;;7.10;100.00;98161.22;6280598;20;2823613;-44
2021/12/02 09:28:20;;;;;;;;;25.50;23.50;;;;;7.14;100.00;98157.38;6282236;20;2833601;-45
2021/12/02 09:30:49;;;;;;;;;24.00;24.00;;;;;7.03;100.00;98152.81;6279527;20;2846193;-45
2021/12/02 09:33:19;;;;;;;;;55.00;42.00;;;;;7.02;100.00;98144.91;6281583;20;2854508;-45
2021/12/02 09:35:47;;;;;;;;;36.00;29.33;;;;;7.09;100.00;98151.53;6314090;20;3604409;-44
2021/12/02 09:38:18;;;;;;;;;34.00;25.67;;;;;7.13;100.00;98144.97;6277484;20;3595043;-45
2021/12/02 09:40:47;;;;;;;;;34.33;29.33;;;;;6.98;100.00;98135.44;6314665;20;3595016;-47
2021/12/02 09:43:17;;;;;;;;;90.00;56.00;;;;;6.88;100.00;98145.06;6280262;20;3676240;-46
2021/12/02 09:45:46;;;;;;;;;59.00;46.67;;;;;6.75;100.00;98139.75;6282194;20;3606459;-45
2021/12/02 09:48:16;;;;;;;;;75.33;57.00;;;;;6.85;100.00;98129.28;6306672;20;3634696;-47
2021/12/02 09:51:01;;;;;;;;;79.33;56.33;;;;;6.79;100.00;98112.75;6309128;20;3651280;-44
2021/12/02 09:56:26;;;;;;;;;55.00;40.33;;;;;6.66;100.00;98119.91;6309301;20;3613792;-45
2021/12/02 09:59:04;;;;;;;;;49.00;38.00;;;;;6.73;100.00;98110.50;6276913;20;3622074;-45
2021/12/02 10:01:45;;;;;;;;;20.50;16.00;;;;;6.68;100.00;98112.63;6310688;20;2810837;-45
2021/12/02 10:04:15;;;;;;;;;52.67;41.33;;;;;6.88;100.00;98108.56;6281088;20;2862789;-45
2021/12/02 10:06:45;;;;;;;;;44.33;35.33;;;;;6.67;100.00;98094.94;6314209;20;3605486;-46
2021/12/02 10:09:27;;;;;;;;;33.00;29.00;;;;;6.64;100.00;98105.84;6277552;20;2855455;-47
2021/12/02 10:12:11;;;;;;;;;46.00;37.67;;;;;6.68;100.00;98104.63;6276367;20;3610801;-45
2021/12/02 10:14:44;;;;;;;;;45.67;40.00;;;;;6.68;100.00;98090.44;6312098;20;3589841;-44
2021/12/02 10:17:30;;;;;;;;;39.00;36.00;;;;;6.59;100.00;98091.97;6310524;20;2836745;-45
2021/12/02 10:23:22;;;;;;;;;53.33;42.00;;;;;6.70;100.00;98084.03;6310813;20;2863317;-45
2021/12/02 10:26:00;;;;;;;;;37.00;35.00;;;;;6.57;100.00;98088.56;6311005;20;2854527;-49
2021/12/02 10:28:42;;;;;;;;;44.00;36.67;;;;;6.72;100.00;98084.78;6308723;20;3601291;-46
2021/12/02 10:31:26;;;;;;;;;40.00;34.67;;;;;6.72;100.00;98086.63;6309371;20;3601476;-46
2021/12/02 10:33:57;;;;;;;;;54.00;43.00;;;;;6.61;100.00;98079.38;6271841;20;2857585;-44
2021/12/02 10:36:43;;;;;;;;;54.00;43.33;;;;;6.84;100.00;98074.19;6276543;20;3593364;-44
2021/12/02 10:39:18;;;;;;;;;54.00;44.00;;;;;6.76;100.00;98072.09;6272137;20;2849267;-45
2021/12/02 10:42:08;;;;;;;;;55.50;43.00;;;;;6.78;100.00;98071.00;6274922;20;2856782;-46
2021/12/02 10:44:41;;;;;;;;;67.00;53.67;;;;;6.86;100.00;98066.94;6277130;20;3610820;-46
2021/12/02 10:47:15;;;;;;;;;57.33;43.67;;;;;6.81;100.00;98070.78;6309034;20;2870084;-45
2021/12/02 10:49:55;;;;;;;;;41.00;36.67;;;;;6.95;100.00;98060.94;6306243;20;3597075;-44
2021/12/02 10:52:28;;;;;;;;;45.33;39.00;;;;;6.77;100.00;98047.97;6279749;20;2854477;-46
2021/12/02 10:55:22;;;;;;;;;49.00;44.00;;;;;6.74;100.00;98048.22;6317305;20;3600290;-47
2021/12/02 10:57:59;;;;;;;;;28.00;23.00;;;;;6.75;100.00;98039.22;6281920;20;2850329;-48
2021/12/02 11:00:36;;;;;;;;;18.00;14.50;;;;;7.00;100.00;98026.75;6286373;20;2802417;-46
2021/12/02 11:03:14;;;;;;;;;16.00;14.33;;;;;7.08;100.00;98029.72;6285977;20;3547123;-44
2021/12/02 11:05:47;;;;;;;;;13.33;13.00;;;;;7.00;100.00;98026.75;6313028;20;2792119;-45
2021/12/02 11:08:18;;;;;;;;;35.67;29.33;;;;;7.07;100.00;98020.00;6314272;20;2854503;-45
2021/12/02 11:10:50;;;;;;;;;38.67;36.33;;;;;7.00;100.00;98024.09;6318791;20;3589804;-44
2021/12/02 11:13:26;;;;;;;;;26.50;20.00;;;;;7.14;100.00;98034.59;6279904;20;2500338;-45
2021/12/02 11:15:55;;;;;;;;;26.50;23.00;;;;;7.13;100.00;98027.56;6282218;20;2837737;-46
2021/12/02 11:18:24;;;;;;;;;29.00;25.00;;;;;7.10;100.00;98030.44;6296084;20;3590876;-44
2021/12/02 11:20:59;;;;;;;;;18.67;15.00;;;;;7.18;100.00;98022.72;6281895;20;3535809;-45
2021/12/02 11:23:45;;;;;;;;;15.00;15.00;;;;;7.11;100.00;98024.16;6316053;20;3515866;-44
2021/12/02 11:26:18;;;;;;;;;32.67;26.33;;;;;7.21;100.00;98017.19;6317194;20;3585680;-45
2021/12/02 11:28:48;;;;;;;;;14.00;13.00;;;;;7.26;100.00;98011.47;6284634;20;2798163;-43
2021/12/02 11:31:21;;;;;;;;;19.33;19.33;;;;;7.25;100.00;98015.13;6279217;20;3559701;-44
2021/12/02 11:33:54;;;;;;;;;17.00;14.00;;;;;7.17;100.00;98015.69;6284668;20;2814831;-44
2021/12/02 11:36:30;;;;;;;;;16.33;14.67;;;;;7.16;100.00;98016.66;6283435;20;2797225;-45
2021/12/02 11:39:00;;;;;;;;;32.00;24.67;;;;;7.15;100.00;98022.13;6311694;20;2862741;-44
2021/12/02 11:41:31;;;;;;;;;20.00;16.33;;;;;7.15;100.00;98020.28;6314856;20;3562735;-44
2021/12/02 11:43:58;;;;;;;;;22.50;19.50;;;;;7.15;100.00;98016.78;6285585;20;2828419;-45
2021/12/02 11:46:27;;;;;;;;;29.50;25.00;;;;;6.96;100.00;98022.63;6282852;20;2841000;-45